This is the latest recevied weather packets stored in our database for station/object VO2AGO. If no packets are shown the sender has not sent any weather packets the latest 1 day(s).
| Time | Temp. | Humidity | Pressure | Rain* | Wind** | Luminosity | Snow |
|---|---|---|---|---|---|---|---|
| 1778157349 | 5.56° C | - | - | - | 0 m/s | 1341 W/m² | - |
| 1778156900 | 5° C | - | - | - | 0 m/s | 941 W/m² | - |
| 1778153749 | 3.89° C | - | - | - | 0 m/s | 520 W/m² | - |
| 1778149249 | 1.11° C | - | - | - | 0 m/s | 184 W/m² | - |
| 1778148799 | 0.56° C | - | - | - | 0 m/s | 170 W/m² | - |
| 1778148349 | 0.56° C | - | - | - | 0 m/s | 138 W/m² | - |
| 1778147899 | 0° C | - | - | - | 0 m/s | 116 W/m² | - |
| 1778146099 | -0.56° C | - | - | - | 0 m/s | 40 W/m² | - |
| 1778144299 | -0.56° C | - | - | - | 0 m/s | 15 W/m² | - |
| 1778143849 | -0.56° C | - | - | - | 0 m/s | 10 W/m² | - |
| 1778142949 | -1.11° C | - | - | - | 0 m/s | 4 W/m² | - |
| 1778142050 | -1.11° C | - | - | - | 0 m/s | 1 W/m² | - |
| 1778139349 | -1.11° C | - | - | - | 0 m/s | 0 W/m² | - |
| 1778138899 | -1.11° C | - | - | - | 0 m/s | 0 W/m² | - |
| 1778137999 | -1.11° C | - | - | - | 0 m/s | 0 W/m² | - |
| 1778137099 | -1.11° C | - | - | - | 0 m/s | 0 W/m² | - |
| 1778136649 | -1.11° C | - | - | - | 0 m/s | 0 W/m² | - |
| 1778136199 | -1.11° C | - | - | - | 0 m/s | 0 W/m² | - |
| 1778135750 | -1.11° C | - | - | - | 0 m/s | 0 W/m² | - |
| 1778135300 | -1.11° C | - | - | - | 0 m/s | 0 W/m² | - |
| 1778134399 | -1.11° C | - | - | - | 0 m/s | 0 W/m² | - |
| 1778133947 | -1.11° C | - | - | - | 0 m/s | 0 W/m² | - |
| 1778133049 | -1.11° C | - | - | - | 0 m/s | 0 W/m² | - |
| 1778132599 | -1.11° C | - | - | - | 0 m/s | 0 W/m² | - |
| 1778132150 | -1.11° C | - | - | - | 0 m/s | 0 W/m² | - |
* Rain since midnight (hover to see other rain measurements)
** Current wind speed in m/s (hover to see current wind gust speed)